createdAt,value
2022-07-28T00:01:47.125Z,13.80
2022-07-28T00:06:46.004Z,13.70
2022-07-28T00:11:54.320Z,13.60
2022-07-28T00:16:54.064Z,13.50
2022-07-28T00:21:53.095Z,13.40
2022-07-28T00:26:52.749Z,13.40
2022-07-28T00:31:52.052Z,13.30
2022-07-28T00:36:51.217Z,13.20
2022-07-28T00:41:50.585Z,13.10
2022-07-28T00:46:50.608Z,13.00
2022-07-28T00:51:49.873Z,13.00
2022-07-28T00:56:50.067Z,12.90
2022-07-28T01:01:49.447Z,12.80
2022-07-28T01:07:09.474Z,12.70
2022-07-28T01:12:26.238Z,12.62
2022-07-28T01:17:40.057Z,12.60
2022-07-28T01:22:57.977Z,12.52
2022-07-28T01:28:20.891Z,12.50
2022-07-28T01:33:28.409Z,12.40
2022-07-28T01:38:30.621Z,12.32
2022-07-28T01:43:33.069Z,12.30
2022-07-28T01:48:33.026Z,12.20
2022-07-28T01:53:37.403Z,12.20
2022-07-28T01:58:39.216Z,12.20
2022-07-28T02:03:40.805Z,12.20
2022-07-28T02:08:42.746Z,12.14
2022-07-28T02:13:43.447Z,12.10
2022-07-28T02:18:45.646Z,12.02
2022-07-28T02:23:49.127Z,12.00
2022-07-28T02:28:52.846Z,12.00
2022-07-28T02:33:59.252Z,11.90
2022-07-28T02:39:07.505Z,11.90
2022-07-28T02:44:15.122Z,11.90
2022-07-28T02:49:21.950Z,11.90
2022-07-28T02:54:23.859Z,11.80
2022-07-28T02:59:27.307Z,11.80
2022-07-28T03:04:41.260Z,11.80
2022-07-28T03:09:45.923Z,11.90
2022-07-28T03:14:45.261Z,11.80
2022-07-28T03:19:45.413Z,11.80
2022-07-28T03:24:52.985Z,11.80
2022-07-28T03:30:03.910Z,11.80
2022-07-28T03:35:07.542Z,11.82
2022-07-28T03:40:11.581Z,11.90
2022-07-28T03:45:13.888Z,11.90
2022-07-28T03:50:15.938Z,11.90
2022-07-28T03:55:17.391Z,12.00
2022-07-28T04:00:19.916Z,12.00
2022-07-28T04:05:21.320Z,12.10
2022-07-28T04:10:21.086Z,12.30
2022-07-28T04:15:21.095Z,12.40
2022-07-28T04:20:21.285Z,12.50
2022-07-28T04:25:23.562Z,12.70
2022-07-28T04:30:25.650Z,12.82
2022-07-28T04:35:27.559Z,13.00
2022-07-28T04:40:27.181Z,13.20
2022-07-28T04:45:26.489Z,13.40
2022-07-28T04:50:25.743Z,13.60
2022-07-28T04:55:29.578Z,13.80
2022-07-28T05:00:29.086Z,14.00
2022-07-28T05:05:31.603Z,14.20
2022-07-28T05:10:30.556Z,14.40
2022-07-28T05:15:29.764Z,14.56
2022-07-28T05:20:31.168Z,14.70
2022-07-28T05:25:30.811Z,14.90
2022-07-28T05:30:30.673Z,15.10
2022-07-28T05:35:31.071Z,15.30
2022-07-28T05:40:30.153Z,15.50
2022-07-28T05:45:29.872Z,15.70
2022-07-28T05:50:28.927Z,15.90
2022-07-28T05:55:27.703Z,16.10
2022-07-28T06:00:27.347Z,16.26
2022-07-28T06:05:27.255Z,16.40
2022-07-28T06:10:49.037Z,16.60
2022-07-28T06:15:51.515Z,16.80
2022-07-28T06:20:50.826Z,16.90
2022-07-28T06:25:49.554Z,17.10
2022-07-28T06:30:49.243Z,17.20
2022-07-28T06:35:51.275Z,17.40
2022-07-28T06:40:50.559Z,17.50
2022-07-28T06:45:51.324Z,17.62
2022-07-28T06:50:50.342Z,17.78
2022-07-28T06:55:50.029Z,17.90
2022-07-28T07:00:49.059Z,18.08
2022-07-28T07:05:51.560Z,18.20
2022-07-28T07:10:52.638Z,18.20
2022-07-28T07:15:51.384Z,18.30
2022-07-28T07:20:50.566Z,18.38
2022-07-28T07:25:49.216Z,18.40
2022-07-28T07:30:48.906Z,18.48
2022-07-28T07:35:48.874Z,18.60
2022-07-28T07:40:47.433Z,18.70
2022-07-28T07:45:46.952Z,18.72
2022-07-28T07:50:48.411Z,18.90
2022-07-28T07:55:50.493Z,19.00
2022-07-28T08:00:49.338Z,19.10
2022-07-28T08:05:49.506Z,19.20
2022-07-28T08:10:51.283Z,19.30
2022-07-28T08:15:50.753Z,19.30
2022-07-28T08:20:49.973Z,19.50
2022-07-28T08:25:49.734Z,19.60
2022-07-28T08:30:48.841Z,19.80
2022-07-28T08:35:47.834Z,20.00
2022-07-28T08:40:50.511Z,20.12
2022-07-28T08:45:58.045Z,20.30
2022-07-28T08:51:04.756Z,20.50
2022-07-28T08:56:10.761Z,20.50
2022-07-28T09:01:11.359Z,20.60
2022-07-28T09:06:11.168Z,20.60
2022-07-28T09:11:09.849Z,20.60
2022-07-28T09:16:09.544Z,20.70
2022-07-28T09:21:08.297Z,20.82
2022-07-28T09:26:14.360Z,21.08
2022-07-28T09:31:14.206Z,21.10
2022-07-28T09:36:18.873Z,21.10
2022-07-28T09:41:22.086Z,21.20
2022-07-28T09:46:24.770Z,21.30
2022-07-28T09:51:31.025Z,21.42
2022-07-28T09:56:35.969Z,21.50
2022-07-28T10:01:36.662Z,21.40
2022-07-28T10:06:40.963Z,21.52
2022-07-28T10:11:41.811Z,21.68
2022-07-28T10:16:52.629Z,21.50
2022-07-28T10:21:56.005Z,21.60
2022-07-28T10:27:01.328Z,21.90
2022-07-28T10:32:06.009Z,21.90
2022-07-28T10:37:11.038Z,22.00
2022-07-28T10:42:14.121Z,22.10
2022-07-28T10:47:18.577Z,22.14
2022-07-28T10:52:45.668Z,22.00
2022-07-28T10:58:01.700Z,22.20
2022-07-28T11:03:13.756Z,22.60
2022-07-28T11:08:31.452Z,22.90
2022-07-28T11:13:35.771Z,23.30
2022-07-28T11:19:42.449Z,23.60
2022-07-28T11:24:50.134Z,23.70
2022-07-28T11:29:52.213Z,23.96
2022-07-28T11:35:14.638Z,24.30
2022-07-28T11:40:38.276Z,24.30
2022-07-28T11:45:39.331Z,23.90
2022-07-28T11:50:40.157Z,23.70
2022-07-28T11:55:56.091Z,23.90
2022-07-28T12:01:19.222Z,24.34
2022-07-28T12:06:29.072Z,24.90
2022-07-28T12:11:33.298Z,25.40
2022-07-28T12:16:34.543Z,25.70
2022-07-28T12:21:46.630Z,25.80
2022-07-28T12:26:50.340Z,26.30
2022-07-28T12:32:02.616Z,26.80
2022-07-28T12:37:05.161Z,27.54
2022-07-28T12:42:11.751Z,28.00
2022-07-28T12:47:13.932Z,28.00
2022-07-28T12:52:24.697Z,27.50
2022-07-28T12:57:49.148Z,27.16
2022-07-28T13:02:50.677Z,27.60
2022-07-28T13:07:58.871Z,27.90
2022-07-28T13:13:09.116Z,28.10
2022-07-28T13:18:10.885Z,27.90
2022-07-28T13:23:09.851Z,28.64
2022-07-28T13:28:24.994Z,29.60
2022-07-28T13:33:26.943Z,29.64
2022-07-28T13:38:27.551Z,28.48
2022-07-28T13:43:35.849Z,27.58
2022-07-28T13:48:38.212Z,27.30
2022-07-28T13:53:58.351Z,27.30
2022-07-28T13:58:56.909Z,27.40
2022-07-28T14:03:59.118Z,27.10
2022-07-28T14:08:58.163Z,27.00
2022-07-28T14:13:57.157Z,27.30
2022-07-28T14:18:56.061Z,27.40
2022-07-28T14:23:54.843Z,27.20
2022-07-28T14:28:54.149Z,27.30
2022-07-28T14:33:54.849Z,27.20
2022-07-28T14:38:54.880Z,27.00
2022-07-28T14:43:53.813Z,27.60
2022-07-28T14:48:52.879Z,27.60
2022-07-28T14:53:52.091Z,27.20
2022-07-28T14:58:50.837Z,26.90
2022-07-28T15:03:50.194Z,26.40
2022-07-28T15:08:49.281Z,26.48
2022-07-28T15:13:47.983Z,26.80
2022-07-28T15:18:46.681Z,26.78
2022-07-28T15:23:45.532Z,26.44
2022-07-28T15:28:43.953Z,26.40
2022-07-28T15:33:48.427Z,26.30
2022-07-28T15:38:57.542Z,26.30
2022-07-28T15:43:56.516Z,26.50
2022-07-28T15:48:55.814Z,26.60
2022-07-28T15:53:56.464Z,27.26
2022-07-28T15:58:55.273Z,27.40
2022-07-28T16:03:54.485Z,27.10
2022-07-28T16:08:54.201Z,26.80
2022-07-28T16:13:53.196Z,26.30
2022-07-28T16:18:57.339Z,25.80
2022-07-28T16:23:58.532Z,25.20
2022-07-28T16:28:57.797Z,25.18
2022-07-28T16:33:57.828Z,25.50
2022-07-28T16:38:57.930Z,25.50
2022-07-28T16:43:57.056Z,25.60
2022-07-28T16:49:07.902Z,26.10
2022-07-28T16:54:32.063Z,27.06
2022-07-28T16:59:37.929Z,28.00
2022-07-28T17:04:47.111Z,28.82
2022-07-28T17:09:46.148Z,28.90
2022-07-28T17:14:45.404Z,29.10
2022-07-28T17:19:46.941Z,29.60
2022-07-28T17:24:48.543Z,29.80
2022-07-28T17:29:47.638Z,29.90
2022-07-28T17:34:46.246Z,29.96
2022-07-28T17:39:46.122Z,30.38
2022-07-28T17:44:45.254Z,30.74
2022-07-28T17:49:45.748Z,30.80
2022-07-28T17:55:02.367Z,30.60
2022-07-28T18:00:01.372Z,30.14
2022-07-28T18:05:00.821Z,29.22
2022-07-28T18:10:01.059Z,28.30
2022-07-28T18:15:00.503Z,27.48
2022-07-28T18:20:00.219Z,26.90
2022-07-28T18:25:01.007Z,26.40
2022-07-28T18:30:00.370Z,25.80
2022-07-28T18:34:59.250Z,25.18
2022-07-28T18:39:58.033Z,24.40
2022-07-28T18:44:56.709Z,23.80
2022-07-28T18:49:56.203Z,23.24
2022-07-28T18:54:57.733Z,22.70
2022-07-28T18:59:55.945Z,22.20
2022-07-28T19:04:55.139Z,21.80
2022-07-28T19:09:54.897Z,21.40
2022-07-28T19:15:21.584Z,21.02
2022-07-28T19:20:21.311Z,20.70
2022-07-28T19:25:20.333Z,20.40
2022-07-28T19:30:21.653Z,20.12
2022-07-28T19:35:21.107Z,19.90
2022-07-28T19:40:20.112Z,19.70
2022-07-28T19:45:19.691Z,19.50
2022-07-28T19:50:19.276Z,19.20
2022-07-28T19:55:19.042Z,19.00
2022-07-28T20:00:22.659Z,18.74
2022-07-28T20:05:24.163Z,18.60
2022-07-28T20:10:25.250Z,18.40
2022-07-28T20:15:27.431Z,18.16
2022-07-28T20:20:27.132Z,17.90
2022-07-28T20:25:31.285Z,17.70
2022-07-28T20:30:30.920Z,17.50
2022-07-28T20:35:30.736Z,17.40
2022-07-28T20:40:30.139Z,17.24
2022-07-28T20:45:32.024Z,17.20
2022-07-28T20:50:30.806Z,17.10
2022-07-28T20:55:29.517Z,17.00
2022-07-28T21:00:30.414Z,16.90
2022-07-28T21:05:35.522Z,16.82
2022-07-28T21:10:35.529Z,16.80
2022-07-28T21:15:35.538Z,16.80
2022-07-28T21:20:46.245Z,16.70
2022-07-28T21:25:45.648Z,16.60
2022-07-28T21:30:45.739Z,16.50
2022-07-28T21:35:45.796Z,16.30
2022-07-28T21:40:46.117Z,16.00
2022-07-28T21:45:45.819Z,15.80
2022-07-28T21:50:44.644Z,15.70
2022-07-28T21:55:44.797Z,15.60
2022-07-28T22:00:43.592Z,15.50
2022-07-28T22:05:43.020Z,15.30
2022-07-28T22:10:41.685Z,15.20
2022-07-28T22:15:41.394Z,15.16
2022-07-28T22:20:41.211Z,15.10
2022-07-28T22:25:41.591Z,15.08
2022-07-28T22:30:40.171Z,15.00
2022-07-28T22:35:39.352Z,15.00
2022-07-28T22:40:39.053Z,14.90
2022-07-28T22:45:49.614Z,14.90
2022-07-28T22:50:51.255Z,14.80
2022-07-28T23:01:10.845Z,14.74
2022-07-28T23:06:11.971Z,14.70
2022-07-28T23:11:11.019Z,14.70
2022-07-28T23:16:13.294Z,14.60
2022-07-28T23:21:15.122Z,14.58
2022-07-28T23:26:15.539Z,14.50
2022-07-28T23:31:14.948Z,14.46
2022-07-28T23:36:17.019Z,14.40
2022-07-28T23:41:26.854Z,14.38
2022-07-28T23:46:25.854Z,14.30
2022-07-28T23:51:33.404Z,14.30
2022-07-28T23:56:43.229Z,14.20
